Time;durP1;ratioP1;P1;durP2;ratioP2;P2;SDS_P1;SDS_P2;PMS_P1;PMS_P2;Temp;Humidity;BMP_temperature;BMP_pressure;BME280_temperature;BME280_humidity;BME280_pressure;Samples;Min_cycle;Max_cycle;Signal;HPM_P1;HPM_P2
2023/12/15 00:01:49;;;;;;;;;;;;;;;;;;5083080;28;20015;-69
2023/12/15 00:04:15;;;;;;;;;;;;;;;;;;5084402;28;19999;-69
2023/12/15 00:06:40;;;;;;;;;;;;;;;;;;5089331;28;19927;-68
2023/12/15 00:09:06;;;;;;;;;;;;;;;;;;5086163;28;19916;-69
2023/12/15 00:11:32;;;;;;;;;;;;;;;;;;5085442;28;20384;-69
2023/12/15 00:13:58;;;;;;;;;;;;;;;;;;5085755;28;19964;-69
2023/12/15 00:16:24;;;;;;;;;;;;;;;;;;5094305;28;20303;-63
2023/12/15 00:18:50;;;;;;;;;;;;;;;;;;5093427;28;19913;-62
2023/12/15 00:21:16;;;;;;;;;;;;;;;;;;5088810;28;19958;-63
2023/12/15 00:23:42;;;;;;;;;;;;;;;;;;5073989;28;20006;-63
2023/12/15 00:26:08;;;;;;;;;;;;;;;;;;5074890;28;19967;-63
2023/12/15 00:28:34;;;;;;;;;;;;;;;;;;5086420;28;19919;-63
2023/12/15 00:31:00;;;;;;;;;;;;;;;;;;5090487;28;19940;-63
2023/12/15 00:33:25;;;;;;;;;;;;;;;;;;5093733;28;19918;-63
2023/12/15 00:35:51;;;;;;;;;;;;;;;;;;5088956;28;20006;-63
2023/12/15 00:38:17;;;;;;;;;;;;;;;;;;5092626;28;19939;-63
2023/12/15 00:40:43;;;;;;;;;;;;;;;;;;5092237;28;19912;-63
2023/12/15 00:43:09;;;;;;;;;;;;;;;;;;5092057;28;20010;-63
2023/12/15 00:45:35;;;;;;;;;;;;;;;;;;5077784;28;20384;-66
2023/12/15 00:48:01;;;;;;;;;;;;;;;;;;5090275;28;19911;-66
2023/12/15 00:50:28;;;;;;;;;;;;;;;;;;5087405;28;20050;-65
2023/12/15 00:52:54;;;;;;;;;;;;;;;;;;5092737;28;19927;-66
2023/12/15 00:55:20;;;;;;;;;;;;;;;;;;5086006;28;19909;-65
2023/12/15 00:57:46;;;;;;;;;;;;;;;;;;5092197;28;20008;-65
2023/12/15 01:00:12;;;;;;;;;;;;;;;;;;5092093;28;19916;-65
2023/12/15 01:02:38;;;;;;;;;;;;;;;;;;5091472;28;20356;-66
2023/12/15 01:05:04;;;;;;;;;;;;;;;;;;5083934;28;19923;-65
2023/12/15 01:07:31;;;;;;;;;;;;;;;;;;5090773;28;19997;-65
2023/12/15 01:09:57;;;;;;;;;;;;;;;;;;5091608;28;19923;-66
2023/12/15 01:12:22;;;;;;;;;;;;;;;;;;5086179;28;19951;-66
2023/12/15 01:14:49;;;;;;;;;;;;;;;;;;5093068;28;20762;-65
2023/12/15 01:17:14;;;;;;;;;;;;;;;;;;5085320;28;19912;-65
2023/12/15 01:19:40;;;;;;;;;;;;;;;;;;5091446;28;19958;-65
2023/12/15 01:22:06;;;;;;;;;;;;;;;;;;5085869;28;19948;-65
2023/12/15 01:24:32;;;;;;;;;;;;;;;;;;5082656;28;20015;-65
2023/12/15 01:26:58;;;;;;;;;;;;;;;;;;5074681;28;19921;-60
2023/12/15 01:29:24;;;;;;;;;;;;;;;;;;5080143;28;20365;-60
2023/12/15 01:31:50;;;;;;;;;;;;;;;;;;5080752;28;19919;-60
2023/12/15 01:34:16;;;;;;;;;;;;;;;;;;5090920;28;19950;-61
2023/12/15 01:36:42;;;;;;;;;;;;;;;;;;5090142;28;19951;-60
2023/12/15 01:39:08;;;;;;;;;;;;;;;;;;5082626;28;19912;-61
2023/12/15 01:41:33;;;;;;;;;;;;;;;;;;5087803;28;20415;-60
2023/12/15 01:43:59;;;;;;;;;;;;;;;;;;5087415;28;19912;-60
2023/12/15 01:46:25;;;;;;;;;;;;;;;;;;5090301;28;20370;-60
2023/12/15 01:48:51;;;;;;;;;;;;;;;;;;5085072;28;19920;-60
2023/12/15 01:51:17;;;;;;;;;;;;;;;;;;5089132;28;20014;-61
2023/12/15 01:53:43;;;;;;;;;;;;;;;;;;5084489;28;20363;-60
2023/12/15 01:56:09;;;;;;;;;;;;;;;;;;5088907;28;19964;-63
2023/12/15 01:58:35;;;;;;;;;;;;;;;;;;5081268;28;19912;-63
2023/12/15 02:01:01;;;;;;;;;;;;;;;;;;5082916;28;19955;-62
2023/12/15 02:03:27;;;;;;;;;;;;;;;;;;5079531;28;19920;-62
2023/12/15 02:05:53;;;;;;;;;;;;;;;;;;5083698;28;19969;-62
2023/12/15 02:08:19;;;;;;;;;;;;;;;;;;5079181;28;20364;-62
2023/12/15 02:10:45;;;;;;;;;;;;;;;;;;5076420;28;20396;-62
2023/12/15 02:13:10;;;;;;;;;;;;;;;;;;5078348;28;20002;-62
2023/12/15 02:15:36;;;;;;;;;;;;;;;;;;5085923;28;19917;-62
2023/12/15 02:18:02;;;;;;;;;;;;;;;;;;5083190;28;20031;-62
2023/12/15 02:20:28;;;;;;;;;;;;;;;;;;5083385;28;19912;-62
2023/12/15 02:22:57;;;;;;;;;;;;;;;;;;5077452;28;19966;-62
2023/12/15 02:25:23;;;;;;;;;;;;;;;;;;5090240;28;19912;-63
2023/12/15 02:27:49;;;;;;;;;;;;;;;;;;5091152;28;19931;-62
2023/12/15 02:30:14;;;;;;;;;;;;;;;;;;5092626;28;19908;-62
2023/12/15 02:32:40;;;;;;;;;;;;;;;;;;5092391;28;19958;-62
2023/12/15 02:35:06;;;;;;;;;;;;;;;;;;5076349;28;20376;-62
2023/12/15 02:37:32;;;;;;;;;;;;;;;;;;5088889;28;19912;-62
2023/12/15 02:39:58;;;;;;;;;;;;;;;;;;5074988;28;19991;-62
2023/12/15 02:42:24;;;;;;;;;;;;;;;;;;5090263;28;19912;-62
2023/12/15 02:44:50;;;;;;;;;;;;;;;;;;5090390;28;19914;-62
2023/12/15 02:47:16;;;;;;;;;;;;;;;;;;5077851;28;19915;-63
2023/12/15 02:49:42;;;;;;;;;;;;;;;;;;5091161;28;19922;-63
2023/12/15 02:52:08;;;;;;;;;;;;;;;;;;5082068;28;19916;-62
2023/12/15 02:54:34;;;;;;;;;;;;;;;;;;5088637;28;19918;-62
2023/12/15 02:56:59;;;;;;;;;;;;;;;;;;5082402;28;19943;-62
2023/12/15 02:59:25;;;;;;;;;;;;;;;;;;5088883;28;19986;-62
2023/12/15 03:01:51;;;;;;;;;;;;;;;;;;5081429;28;19913;-62
2023/12/15 03:04:17;;;;;;;;;;;;;;;;;;5089810;28;20336;-62
2023/12/15 03:06:43;;;;;;;;;;;;;;;;;;5092370;28;19956;-62
2023/12/15 03:09:09;;;;;;;;;;;;;;;;;;5076413;28;19912;-62
2023/12/15 03:11:35;;;;;;;;;;;;;;;;;;5072160;28;20004;-62
2023/12/15 03:14:01;;;;;;;;;;;;;;;;;;5076747;28;19922;-63
2023/12/15 03:16:27;;;;;;;;;;;;;;;;;;5073834;28;20418;-62
2023/12/15 03:18:52;;;;;;;;;;;;;;;;;;5076557;28;19918;-62
2023/12/15 03:21:18;;;;;;;;;;;;;;;;;;5074980;28;19912;-63
2023/12/15 03:23:44;;;;;;;;;;;;;;;;;;5083108;28;19942;-62
2023/12/15 03:26:10;;;;;;;;;;;;;;;;;;5084598;28;19978;-62
2023/12/15 03:28:36;;;;;;;;;;;;;;;;;;5091457;28;19916;-62
2023/12/15 03:31:02;;;;;;;;;;;;;;;;;;5086598;28;19938;-62
2023/12/15 03:33:28;;;;;;;;;;;;;;;;;;5082269;28;19948;-62
2023/12/15 03:35:54;;;;;;;;;;;;;;;;;;5080450;28;19982;-62
2023/12/15 03:38:20;;;;;;;;;;;;;;;;;;5089142;28;19914;-63
2023/12/15 03:40:46;;;;;;;;;;;;;;;;;;5086428;28;19908;-62
2023/12/15 03:43:11;;;;;;;;;;;;;;;;;;5087649;28;19912;-62
2023/12/15 03:45:37;;;;;;;;;;;;;;;;;;5088991;28;20011;-62
2023/12/15 03:48:03;;;;;;;;;;;;;;;;;;5081770;28;19916;-62
2023/12/15 03:50:30;;;;;;;;;;;;;;;;;;5079090;28;19916;-63
2023/12/15 03:52:56;;;;;;;;;;;;;;;;;;5084735;28;19924;-62
2023/12/15 03:55:22;;;;;;;;;;;;;;;;;;5073544;28;20433;-62
2023/12/15 03:57:48;;;;;;;;;;;;;;;;;;5077055;28;20487;-63
2023/12/15 04:00:13;;;;;;;;;;;;;;;;;;5083641;28;20010;-62
2023/12/15 04:02:39;;;;;;;;;;;;;;;;;;5076051;28;20387;-62
2023/12/15 04:05:05;;;;;;;;;;;;;;;;;;5084055;28;19931;-63
2023/12/15 04:07:31;;;;;;;;;;;;;;;;;;5093506;28;19970;-63
2023/12/15 04:09:57;;;;;;;;;;;;;;;;;;5080760;28;19959;-62
2023/12/15 04:12:23;;;;;;;;;;;;;;;;;;5084061;28;20030;-62
2023/12/15 04:14:49;;;;;;;;;;;;;;;;;;5093221;28;20360;-63
2023/12/15 04:17:15;;;;;;;;;;;;;;;;;;5092935;28;19951;-62
2023/12/15 04:19:41;;;;;;;;;;;;;;;;;;5094703;28;20316;-62
2023/12/15 04:22:06;;;;;;;;;;;;;;;;;;5076373;28;19921;-63
2023/12/15 04:24:32;;;;;;;;;;;;;;;;;;5085654;28;19966;-63
2023/12/15 04:26:58;;;;;;;;;;;;;;;;;;5082439;28;20388;-61
2023/12/15 04:29:24;;;;;;;;;;;;;;;;;;5080343;28;20005;-60
2023/12/15 04:31:50;;;;;;;;;;;;;;;;;;5090537;28;19908;-61
2023/12/15 04:34:16;;;;;;;;;;;;;;;;;;5094114;28;19953;-61
2023/12/15 04:36:42;;;;;;;;;;;;;;;;;;5092828;28;19912;-60
2023/12/15 04:39:08;;;;;;;;;;;;;;;;;;5081629;28;19913;-60
2023/12/15 04:41:34;;;;;;;;;;;;;;;;;;5076158;28;20283;-61
2023/12/15 04:44:00;;;;;;;;;;;;;;;;;;5080756;28;19919;-62
2023/12/15 04:46:25;;;;;;;;;;;;;;;;;;5082414;28;20031;-61
2023/12/15 04:48:51;;;;;;;;;;;;;;;;;;5085199;28;19937;-60
2023/12/15 04:51:17;;;;;;;;;;;;;;;;;;5093881;28;19968;-60
2023/12/15 04:53:43;;;;;;;;;;;;;;;;;;5092299;28;19912;-61
2023/12/15 04:56:09;;;;;;;;;;;;;;;;;;5091178;28;19997;-60
2023/12/15 04:58:35;;;;;;;;;;;;;;;;;;5079596;28;19957;-61
2023/12/15 05:01:01;;;;;;;;;;;;;;;;;;5081477;28;20291;-62
2023/12/15 05:03:27;;;;;;;;;;;;;;;;;;5086390;28;19927;-60
2023/12/15 05:05:53;;;;;;;;;;;;;;;;;;5082679;28;19912;-61
2023/12/15 05:08:19;;;;;;;;;;;;;;;;;;5090958;28;19920;-60
2023/12/15 05:10:45;;;;;;;;;;;;;;;;;;5082517;28;19916;-60
2023/12/15 05:13:11;;;;;;;;;;;;;;;;;;5083689;28;19922;-61
2023/12/15 05:15:37;;;;;;;;;;;;;;;;;;5087924;28;20292;-61
2023/12/15 05:18:03;;;;;;;;;;;;;;;;;;5085973;28;19939;-60
2023/12/15 05:20:29;;;;;;;;;;;;;;;;;;5089571;28;19955;-60
2023/12/15 05:22:55;;;;;;;;;;;;;;;;;;5084701;28;19912;-61
2023/12/15 05:25:21;;;;;;;;;;;;;;;;;;5079250;28;20360;-60
2023/12/15 05:27:46;;;;;;;;;;;;;;;;;;5083377;28;19920;-61
2023/12/15 05:30:12;;;;;;;;;;;;;;;;;;5086949;28;20390;-61
2023/12/15 05:32:38;;;;;;;;;;;;;;;;;;5082868;28;19965;-61
2023/12/15 05:35:04;;;;;;;;;;;;;;;;;;5078280;28;20002;-60
2023/12/15 05:37:30;;;;;;;;;;;;;;;;;;5085388;28;19912;-60
2023/12/15 05:39:57;;;;;;;;;;;;;;;;;;5085960;28;20336;-60
2023/12/15 05:42:23;;;;;;;;;;;;;;;;;;5088523;28;19936;-61
2023/12/15 05:44:49;;;;;;;;;;;;;;;;;;5080159;28;20288;-61
2023/12/15 05:47:15;;;;;;;;;;;;;;;;;;5081431;28;19916;-60
2023/12/15 05:49:41;;;;;;;;;;;;;;;;;;5081812;28;19967;-61
2023/12/15 05:52:08;;;;;;;;;;;;;;;;;;5081648;28;20002;-60
2023/12/15 05:54:34;;;;;;;;;;;;;;;;;;5083983;28;19916;-61
2023/12/15 05:57:00;;;;;;;;;;;;;;;;;;5081092;28;19912;-61
2023/12/15 05:59:26;;;;;;;;;;;;;;;;;;5080702;28;19993;-62
2023/12/15 06:01:51;;;;;;;;;;;;;;;;;;5084895;28;19922;-60
2023/12/15 06:04:17;;;;;;;;;;;;;;;;;;5087648;28;20350;-62
2023/12/15 06:06:43;;;;;;;;;;;;;;;;;;5082481;28;19916;-61
2023/12/15 06:09:09;;;;;;;;;;;;;;;;;;5082878;28;19998;-61
2023/12/15 06:11:35;;;;;;;;;;;;;;;;;;5089336;28;19919;-61
2023/12/15 06:14:01;;;;;;;;;;;;;;;;;;5078828;28;20007;-61
2023/12/15 06:16:27;;;;;;;;;;;;;;;;;;5078050;28;19912;-61
2023/12/15 06:18:53;;;;;;;;;;;;;;;;;;5076170;28;19913;-61
2023/12/15 06:21:19;;;;;;;;;;;;;;;;;;5079102;28;19940;-61
2023/12/15 06:23:45;;;;;;;;;;;;;;;;;;5080529;28;19968;-61
2023/12/15 06:26:11;;;;;;;;;;;;;;;;;;5082080;28;19966;-61
2023/12/15 06:28:37;;;;;;;;;;;;;;;;;;5077394;28;20020;-61
2023/12/15 06:31:02;;;;;;;;;;;;;;;;;;5078005;28;19919;-63
2023/12/15 06:33:28;;;;;;;;;;;;;;;;;;5079884;28;19920;-60
2023/12/15 06:35:54;;;;;;;;;;;;;;;;;;5086930;28;20360;-60
2023/12/15 06:38:20;;;;;;;;;;;;;;;;;;5085688;28;19959;-60
2023/12/15 06:40:46;;;;;;;;;;;;;;;;;;5092186;28;19908;-60
2023/12/15 06:43:12;;;;;;;;;;;;;;;;;;5090016;28;19959;-60
2023/12/15 06:45:38;;;;;;;;;;;;;;;;;;5091382;28;19931;-65
2023/12/15 06:48:04;;;;;;;;;;;;;;;;;;5088303;28;19920;-65
2023/12/15 06:50:30;;;;;;;;;;;;;;;;;;5084409;28;19948;-66
2023/12/15 06:52:55;;;;;;;;;;;;;;;;;;5090731;28;20384;-65
2023/12/15 06:55:22;;;;;;;;;;;;;;;;;;5090041;28;19999;-65
2023/12/15 06:57:47;;;;;;;;;;;;;;;;;;5092296;28;19991;-65
2023/12/15 07:00:13;;;;;;;;;;;;;;;;;;5091451;28;20339;-65
2023/12/15 07:02:39;;;;;;;;;;;;;;;;;;5091050;28;20051;-65
2023/12/15 07:05:05;;;;;;;;;;;;;;;;;;5086361;28;19916;-65
2023/12/15 07:07:31;;;;;;;;;;;;;;;;;;5090776;28;19919;-65
2023/12/15 07:09:57;;;;;;;;;;;;;;;;;;5085391;28;19920;-65
2023/12/15 07:12:23;;;;;;;;;;;;;;;;;;5084516;28;20454;-65
2023/12/15 07:14:49;;;;;;;;;;;;;;;;;;5090819;28;19916;-65
2023/12/15 07:17:15;;;;;;;;;;;;;;;;;;5089856;28;19912;-65
2023/12/15 07:19:41;;;;;;;;;;;;;;;;;;5076542;28;20023;-65
2023/12/15 07:22:07;;;;;;;;;;;;;;;;;;5087103;28;19919;-65
2023/12/15 07:24:34;;;;;;;;;;;;;;;;;;5091465;28;19915;-65
2023/12/15 07:27:00;;;;;;;;;;;;;;;;;;5087778;28;19924;-65
2023/12/15 07:29:26;;;;;;;;;;;;;;;;;;5088217;28;19919;-65
2023/12/15 07:31:52;;;;;;;;;;;;;;;;;;5092411;28;19916;-65
2023/12/15 07:34:18;;;;;;;;;;;;;;;;;;5095157;28;19958;-65
2023/12/15 07:36:44;;;;;;;;;;;;;;;;;;5088389;28;20379;-65
2023/12/15 07:39:10;;;;;;;;;;;;;;;;;;5095085;28;19912;-65
2023/12/15 07:41:36;;;;;;;;;;;;;;;;;;5081188;28;19912;-65
2023/12/15 07:44:02;;;;;;;;;;;;;;;;;;5094960;28;19965;-65
2023/12/15 07:46:28;;;;;;;;;;;;;;;;;;5093095;28;20390;-65
2023/12/15 07:48:53;;;;;;;;;;;;;;;;;;5095071;28;19999;-65
2023/12/15 07:51:19;;;;;;;;;;;;;;;;;;5092293;28;19974;-66
2023/12/15 07:53:47;;;;;;;;;;;;;;;;;;5095014;28;19915;-65
2023/12/15 07:56:13;;;;;;;;;;;;;;;;;;5091182;28;19959;-63
2023/12/15 07:58:39;;;;;;;;;;;;;;;;;;5085414;28;19939;-63
2023/12/15 08:01:05;;;;;;;;;;;;;;;;;;5094317;28;19908;-63
2023/12/15 08:03:31;;;;;;;;;;;;;;;;;;5094891;28;19918;-63
2023/12/15 08:05:57;;;;;;;;;;;;;;;;;;5093731;28;19994;-63
2023/12/15 08:08:23;;;;;;;;;;;;;;;;;;5092704;28;19999;-63
2023/12/15 08:10:49;;;;;;;;;;;;;;;;;;5094072;28;19916;-63
2023/12/15 08:13:15;;;;;;;;;;;;;;;;;;5084855;28;20092;-63
2023/12/15 08:15:41;;;;;;;;;;;;;;;;;;5094563;28;20371;-63
2023/12/15 08:18:07;;;;;;;;;;;;;;;;;;5094584;28;19912;-63
2023/12/15 08:20:33;;;;;;;;;;;;;;;;;;5093967;28;19987;-63
2023/12/15 08:22:59;;;;;;;;;;;;;;;;;;5094272;28;20344;-63
2023/12/15 08:25:25;;;;;;;;;;;;;;;;;;5093031;28;20002;-63
2023/12/15 08:27:51;;;;;;;;;;;;;;;;;;5093891;28;19932;-63
2023/12/15 08:30:17;;;;;;;;;;;;;;;;;;5083012;28;20428;-63
2023/12/15 08:32:43;;;;;;;;;;;;;;;;;;5094169;28;19951;-63
2023/12/15 08:35:09;;;;;;;;;;;;;;;;;;5093898;28;20271;-63
2023/12/15 08:37:35;;;;;;;;;;;;;;;;;;5082338;28;19915;-63
2023/12/15 08:40:01;;;;;;;;;;;;;;;;;;5078203;28;19912;-63
2023/12/15 08:42:27;;;;;;;;;;;;;;;;;;5093848;28;19916;-63
2023/12/15 08:44:52;;;;;;;;;;;;;;;;;;5092811;28;19999;-63
2023/12/15 08:47:18;;;;;;;;;;;;;;;;;;5092097;28;19977;-63
2023/12/15 08:49:44;;;;;;;;;;;;;;;;;;5087725;28;19912;-63
2023/12/15 08:52:10;;;;;;;;;;;;;;;;;;5073465;28;19913;-63
2023/12/15 08:54:36;;;;;;;;;;;;;;;;;;5085870;28;20277;-63
2023/12/15 08:57:02;;;;;;;;;;;;;;;;;;5073164;28;20012;-63
2023/12/15 08:59:28;;;;;;;;;;;;;;;;;;5091382;28;20085;-63
2023/12/15 09:01:54;;;;;;;;;;;;;;;;;;5082233;28;19914;-63
2023/12/15 09:04:19;;;;;;;;;;;;;;;;;;5078022;28;20009;-63
2023/12/15 09:06:45;;;;;;;;;;;;;;;;;;5091773;28;20337;-68
2023/12/15 09:09:11;;;;;;;;;;;;;;;;;;5093034;28;19912;-68
2023/12/15 09:11:37;;;;;;;;;;;;;;;;;;5093025;28;19948;-69
2023/12/15 09:14:03;;;;;;;;;;;;;;;;;;5093353;28;19912;-69
2023/12/15 09:16:29;;;;;;;;;;;;;;;;;;5093373;28;19952;-69
2023/12/15 09:18:55;;;;;;;;;;;;;;;;;;5093111;28;19994;-68
2023/12/15 09:21:21;;;;;;;;;;;;;;;;;;5092921;28;19909;-69
2023/12/15 09:23:47;;;;;;;;;;;;;;;;;;5091066;28;20334;-70
2023/12/15 09:26:13;;;;;;;;;;;;;;;;;;5092775;28;20277;-68
2023/12/15 09:28:38;;;;;;;;;;;;;;;;;;5092997;28;19942;-69
2023/12/15 09:31:04;;;;;;;;;;;;;;;;;;5079627;28;20005;-69
2023/12/15 09:33:30;;;;;;;;;;;;;;;;;;5090239;28;20376;-69
2023/12/15 09:35:56;;;;;;;;;;;;;;;;;;5092694;28;19909;-68
2023/12/15 09:38:22;;;;;;;;;;;;;;;;;;5074717;28;20360;-68
2023/12/15 09:40:48;;;;;;;;;;;;;;;;;;5083496;28;19951;-69
2023/12/15 09:43:14;;;;;;;;;;;;;;;;;;5092655;28;19912;-68
2023/12/15 09:45:40;;;;;;;;;;;;;;;;;;5091087;28;19927;-68
2023/12/15 09:48:06;;;;;;;;;;;;;;;;;;5092466;28;20402;-69
2023/12/15 09:50:32;;;;;;;;;;;;;;;;;;5092426;28;19916;-70
2023/12/15 09:52:57;;;;;;;;;;;;;;;;;;5092459;28;20329;-69
2023/12/15 09:55:24;;;;;;;;;;;;;;;;;;5079744;28;19953;-69
2023/12/15 09:57:50;;;;;;;;;;;;;;;;;;5076893;28;19912;-70
2023/12/15 10:00:16;;;;;;;;;;;;;;;;;;5091683;28;20360;-68
2023/12/15 10:02:42;;;;;;;;;;;;;;;;;;5091613;28;19912;-69
2023/12/15 10:05:08;;;;;;;;;;;;;;;;;;5092491;28;20086;-69
2023/12/15 10:07:34;;;;;;;;;;;;;;;;;;5091916;28;19912;-69
2023/12/15 10:10:00;;;;;;;;;;;;;;;;;;5091945;28;19908;-69
2023/12/15 10:12:26;;;;;;;;;;;;;;;;;;5083297;28;19908;-69
2023/12/15 10:14:52;;;;;;;;;;;;;;;;;;5092372;28;19999;-66
2023/12/15 10:17:18;;;;;;;;;;;;;;;;;;5092126;28;19912;-65
2023/12/15 10:19:43;;;;;;;;;;;;;;;;;;5091755;28;19908;-65
2023/12/15 10:22:09;;;;;;;;;;;;;;;;;;5092110;28;19915;-65
2023/12/15 10:24:35;;;;;;;;;;;;;;;;;;5091793;28;19947;-65
2023/12/15 10:27:03;;;;;;;;;;;;;;;;;;5091786;28;19924;-65
2023/12/15 10:29:29;;;;;;;;;;;;;;;;;;5091896;28;20275;-65
2023/12/15 10:31:55;;;;;;;;;;;;;;;;;;5087982;28;19995;-65
2023/12/15 10:34:21;;;;;;;;;;;;;;;;;;5086805;28;20007;-65
2023/12/15 10:36:47;;;;;;;;;;;;;;;;;;5077670;28;19943;-65
2023/12/15 10:39:13;;;;;;;;;;;;;;;;;;5088068;28;20471;-65
2023/12/15 10:41:39;;;;;;;;;;;;;;;;;;5082667;28;20000;-65
2023/12/15 10:44:04;;;;;;;;;;;;;;;;;;5074070;28;19948;-65
2023/12/15 10:46:30;;;;;;;;;;;;;;;;;;5091621;28;20286;-65
2023/12/15 10:48:56;;;;;;;;;;;;;;;;;;5091666;28;19919;-65
2023/12/15 10:51:24;;;;;;;;;;;;;;;;;;5090618;28;19912;-65
2023/12/15 10:53:51;;;;;;;;;;;;;;;;;;5091311;28;19957;-65
2023/12/15 10:56:17;;;;;;;;;;;;;;;;;;5091780;28;20748;-65
2023/12/15 10:58:43;;;;;;;;;;;;;;;;;;5078303;28;19991;-65
2023/12/15 11:01:09;;;;;;;;;;;;;;;;;;5079762;28;19961;-65
2023/12/15 11:03:35;;;;;;;;;;;;;;;;;;5091487;28;19908;-65
2023/12/15 11:06:01;;;;;;;;;;;;;;;;;;5091530;28;19915;-65
2023/12/15 11:08:27;;;;;;;;;;;;;;;;;;5094920;28;20457;-65
2023/12/15 11:10:53;;;;;;;;;;;;;;;;;;5095583;28;20284;-65
2023/12/15 11:13:18;;;;;;;;;;;;;;;;;;5090357;28;19943;-64
2023/12/15 11:15:44;;;;;;;;;;;;;;;;;;5095669;28;19909;-65
2023/12/15 11:18:11;;;;;;;;;;;;;;;;;;5088294;28;19912;-65
2023/12/15 11:20:37;;;;;;;;;;;;;;;;;;5083799;28;19957;-64
2023/12/15 11:23:02;;;;;;;;;;;;;;;;;;5086292;28;20317;-65
2023/12/15 11:25:28;;;;;;;;;;;;;;;;;;5095415;28;20030;-60
2023/12/15 11:27:54;;;;;;;;;;;;;;;;;;5095136;28;20015;-60
2023/12/15 11:30:20;;;;;;;;;;;;;;;;;;5095089;28;20407;-60
2023/12/15 11:32:46;;;;;;;;;;;;;;;;;;5095099;28;19908;-61
2023/12/15 11:35:12;;;;;;;;;;;;;;;;;;5092406;28;20336;-60
2023/12/15 11:37:38;;;;;;;;;;;;;;;;;;5082891;28;19995;-60
2023/12/15 11:40:05;;;;;;;;;;;;;;;;;;5093215;28;19972;-61
2023/12/15 11:42:33;;;;;;;;;;;;;;;;;;5094969;28;19908;-60
2023/12/15 11:45:00;;;;;;;;;;;;;;;;;;5076583;28;19962;-60
2023/12/15 11:47:27;;;;;;;;;;;;;;;;;;5086320;28;19914;-60
2023/12/15 11:49:52;;;;;;;;;;;;;;;;;;5088682;28;19912;-60
2023/12/15 11:52:18;;;;;;;;;;;;;;;;;;5087172;28;20004;-60
2023/12/15 11:54:44;;;;;;;;;;;;;;;;;;5094793;28;20332;-61
2023/12/15 11:57:10;;;;;;;;;;;;;;;;;;5075662;28;20007;-60
2023/12/15 11:59:36;;;;;;;;;;;;;;;;;;5092775;28;19935;-61
2023/12/15 12:02:02;;;;;;;;;;;;;;;;;;5088374;28;19912;-60
2023/12/15 12:04:28;;;;;;;;;;;;;;;;;;5094217;28;19919;-60
2023/12/15 12:06:54;;;;;;;;;;;;;;;;;;5094685;28;19958;-60
2023/12/15 12:09:20;;;;;;;;;;;;;;;;;;5089737;28;19913;-60
2023/12/15 12:11:46;;;;;;;;;;;;;;;;;;5083982;28;20008;-60
2023/12/15 12:14:12;;;;;;;;;;;;;;;;;;5088803;28;19957;-61
2023/12/15 12:16:38;;;;;;;;;;;;;;;;;;5077911;28;19917;-61
2023/12/15 12:19:04;;;;;;;;;;;;;;;;;;5075924;28;20482;-60
2023/12/15 12:21:30;;;;;;;;;;;;;;;;;;5092974;28;19912;-60
2023/12/15 12:23:56;;;;;;;;;;;;;;;;;;5094431;28;20352;-60
2023/12/15 12:26:21;;;;;;;;;;;;;;;;;;5094074;28;20012;-60
2023/12/15 12:28:50;;;;;;;;;;;;;;;;;;5094213;28;20300;-60
2023/12/15 12:31:16;;;;;;;;;;;;;;;;;;5091500;28;19912;-62
2023/12/15 12:33:42;;;;;;;;;;;;;;;;;;5090064;28;19958;-60
2023/12/15 12:36:08;;;;;;;;;;;;;;;;;;5077714;28;19947;-60
2023/12/15 12:38:34;;;;;;;;;;;;;;;;;;5091455;28;20421;-60
2023/12/15 12:41:05;;;;;;;;;;;;;;;;;;5090770;28;19959;-60
2023/12/15 12:43:31;;;;;;;;;;;;;;;;;;5089512;28;19912;-60
2023/12/15 12:45:57;;;;;;;;;;;;;;;;;;5086530;28;19966;-60
2023/12/15 12:48:23;;;;;;;;;;;;;;;;;;5073870;28;19951;-60
2023/12/15 12:50:49;;;;;;;;;;;;;;;;;;5091655;28;19919;-60
2023/12/15 12:53:15;;;;;;;;;;;;;;;;;;5088190;28;19908;-60
2023/12/15 12:55:40;;;;;;;;;;;;;;;;;;5087629;28;19955;-60
2023/12/15 12:58:06;;;;;;;;;;;;;;;;;;5086500;28;19946;-60
2023/12/15 13:00:32;;;;;;;;;;;;;;;;;;5090870;28;19916;-61
2023/12/15 13:02:58;;;;;;;;;;;;;;;;;;5080156;28;19917;-61
2023/12/15 13:05:24;;;;;;;;;;;;;;;;;;5079186;28;19955;-60
2023/12/15 13:07:50;;;;;;;;;;;;;;;;;;5092804;28;19912;-60
2023/12/15 13:10:16;;;;;;;;;;;;;;;;;;5086556;28;19923;-61
2023/12/15 13:12:44;;;;;;;;;;;;;;;;;;5074414;28;19912;-60
2023/12/15 13:15:10;;;;;;;;;;;;;;;;;;5092998;28;20300;-60
2023/12/15 13:17:36;;;;;;;;;;;;;;;;;;5091902;28;20376;-60
2023/12/15 13:20:02;;;;;;;;;;;;;;;;;;5081445;28;19962;-60
2023/12/15 13:22:28;;;;;;;;;;;;;;;;;;5093204;28;20006;-60
2023/12/15 13:24:54;;;;;;;;;;;;;;;;;;5082227;28;19916;-60
2023/12/15 13:27:20;;;;;;;;;;;;;;;;;;5092811;28;19963;-60
2023/12/15 13:29:46;;;;;;;;;;;;;;;;;;5092101;28;19912;-60
2023/12/15 13:32:13;;;;;;;;;;;;;;;;;;5093020;28;20375;-60
2023/12/15 13:34:39;;;;;;;;;;;;;;;;;;5092706;28;19966;-60
2023/12/15 13:37:06;;;;;;;;;;;;;;;;;;5091051;28;19962;-60
2023/12/15 13:39:32;;;;;;;;;;;;;;;;;;5091531;28;19915;-60
2023/12/15 13:41:58;;;;;;;;;;;;;;;;;;5087967;28;20006;-61
2023/12/15 13:44:25;;;;;;;;;;;;;;;;;;5092603;28;19915;-60
2023/12/15 13:46:52;;;;;;;;;;;;;;;;;;5092101;28;20700;-69
2023/12/15 13:49:18;;;;;;;;;;;;;;;;;;5092185;28;20010;-68
2023/12/15 13:51:44;;;;;;;;;;;;;;;;;;5087694;28;20535;-67
2023/12/15 13:54:10;;;;;;;;;;;;;;;;;;5091259;28;19999;-69
2023/12/15 13:56:36;;;;;;;;;;;;;;;;;;5092284;28;19959;-68
2023/12/15 13:59:02;;;;;;;;;;;;;;;;;;5092279;28;20303;-67
2023/12/15 14:01:28;;;;;;;;;;;;;;;;;;5091993;28;19918;-67
2023/12/15 14:03:54;;;;;;;;;;;;;;;;;;5090814;28;20384;-67
2023/12/15 14:06:20;;;;;;;;;;;;;;;;;;5077193;28;19912;-69
2023/12/15 14:08:46;;;;;;;;;;;;;;;;;;5074219;28;20388;-66
2023/12/15 14:11:12;;;;;;;;;;;;;;;;;;5087589;28;19912;-69
2023/12/15 14:13:38;;;;;;;;;;;;;;;;;;5086712;28;19920;-66
2023/12/15 14:16:04;;;;;;;;;;;;;;;;;;5082467;28;19951;-70
2023/12/15 14:18:30;;;;;;;;;;;;;;;;;;5087594;28;19955;-69
2023/12/15 14:20:56;;;;;;;;;;;;;;;;;;5087084;28;20015;-69
2023/12/15 14:23:22;;;;;;;;;;;;;;;;;;5074376;28;20007;-69
2023/12/15 14:25:48;;;;;;;;;;;;;;;;;;5091062;28;20399;-66
2023/12/15 14:28:14;;;;;;;;;;;;;;;;;;5089656;28;19924;-66
2023/12/15 14:30:40;;;;;;;;;;;;;;;;;;5078489;28;20661;-69
2023/12/15 14:33:07;;;;;;;;;;;;;;;;;;5088196;28;19985;-69
2023/12/15 14:35:33;;;;;;;;;;;;;;;;;;5092249;28;19908;-67
2023/12/15 14:37:58;;;;;;;;;;;;;;;;;;5087277;28;20245;-64
2023/12/15 14:40:25;;;;;;;;;;;;;;;;;;5088415;28;19959;-70
2023/12/15 14:42:51;;;;;;;;;;;;;;;;;;5085460;28;19920;-69
2023/12/15 14:45:17;;;;;;;;;;;;;;;;;;5091958;28;19939;-69
2023/12/15 14:47:43;;;;;;;;;;;;;;;;;;5089017;28;20304;-68
2023/12/15 14:50:08;;;;;;;;;;;;;;;;;;5081857;28;19918;-68
2023/12/15 14:52:34;;;;;;;;;;;;;;;;;;5078210;28;19912;-67
2023/12/15 14:55:01;;;;;;;;;;;;;;;;;;5086423;28;20389;-65
2023/12/15 14:57:27;;;;;;;;;;;;;;;;;;5086178;28;19916;-65
2023/12/15 14:59:53;;;;;;;;;;;;;;;;;;5083552;28;20001;-66
2023/12/15 15:02:19;;;;;;;;;;;;;;;;;;5089709;28;20451;-65
2023/12/15 15:04:45;;;;;;;;;;;;;;;;;;5087153;28;20012;-65
2023/12/15 15:07:11;;;;;;;;;;;;;;;;;;5080833;28;19973;-65
2023/12/15 15:09:37;;;;;;;;;;;;;;;;;;5089020;28;20053;-66
2023/12/15 15:12:03;;;;;;;;;;;;;;;;;;5080498;28;20390;-65
2023/12/15 15:14:29;;;;;;;;;;;;;;;;;;5090554;28;19920;-66
2023/12/15 15:16:55;;;;;;;;;;;;;;;;;;5089084;28;20329;-65
2023/12/15 15:19:21;;;;;;;;;;;;;;;;;;5071514;28;19909;-65
2023/12/15 15:21:46;;;;;;;;;;;;;;;;;;5078885;28;20105;-65
2023/12/15 15:24:12;;;;;;;;;;;;;;;;;;5075764;28;19912;-65
2023/12/15 15:26:38;;;;;;;;;;;;;;;;;;5082300;28;19967;-65
2023/12/15 15:29:04;;;;;;;;;;;;;;;;;;5078817;28;19958;-65
2023/12/15 15:31:30;;;;;;;;;;;;;;;;;;5086925;28;19966;-65
2023/12/15 15:33:56;;;;;;;;;;;;;;;;;;5091341;28;19908;-65
2023/12/15 15:36:23;;;;;;;;;;;;;;;;;;5089186;28;19940;-65
2023/12/15 15:38:51;;;;;;;;;;;;;;;;;;5079997;28;19923;-65
2023/12/15 15:41:18;;;;;;;;;;;;;;;;;;5086498;28;21550;-65
2023/12/15 15:43:44;;;;;;;;;;;;;;;;;;5091863;28;19908;-65
2023/12/15 15:46:10;;;;;;;;;;;;;;;;;;5091865;28;20008;-65
2023/12/15 15:48:37;;;;;;;;;;;;;;;;;;5091777;28;20458;-65
2023/12/15 15:51:03;;;;;;;;;;;;;;;;;;5091476;28;20049;-65
2023/12/15 15:53:30;;;;;;;;;;;;;;;;;;5084655;28;19958;-65
2023/12/15 15:55:55;;;;;;;;;;;;;;;;;;5091546;28;19977;-65
2023/12/15 15:58:22;;;;;;;;;;;;;;;;;;5095749;28;19916;-63
2023/12/15 16:00:48;;;;;;;;;;;;;;;;;;5095304;28;20688;-65
2023/12/15 16:03:14;;;;;;;;;;;;;;;;;;5095439;28;19943;-64
2023/12/15 16:05:40;;;;;;;;;;;;;;;;;;5095382;28;19961;-65
2023/12/15 16:08:06;;;;;;;;;;;;;;;;;;5095517;28;20007;-65
2023/12/15 16:10:32;;;;;;;;;;;;;;;;;;5094811;28;19947;-65
2023/12/15 16:12:58;;;;;;;;;;;;;;;;;;5095500;28;20385;-65
2023/12/15 16:15:24;;;;;;;;;;;;;;;;;;5092239;28;20006;-65
2023/12/15 16:17:50;;;;;;;;;;;;;;;;;;5074965;28;19948;-65
2023/12/15 16:20:16;;;;;;;;;;;;;;;;;;5092617;28;19914;-65
2023/12/15 16:22:41;;;;;;;;;;;;;;;;;;5093096;28;20356;-65
2023/12/15 16:25:08;;;;;;;;;;;;;;;;;;5094721;28;19952;-65
2023/12/15 16:27:34;;;;;;;;;;;;;;;;;;5089149;28;20376;-65
2023/12/15 16:30:00;;;;;;;;;;;;;;;;;;5094657;28;19919;-65
2023/12/15 16:32:26;;;;;;;;;;;;;;;;;;5094919;28;20368;-65
2023/12/15 16:34:52;;;;;;;;;;;;;;;;;;5094665;28;20003;-65
2023/12/15 16:37:17;;;;;;;;;;;;;;;;;;5095090;28;20007;-65